Terminal Aerodrome Forecast
Issued by NWS

Home | Current Version | Previous Version | Text Only | Print | Product List | Glossary On
Versions: 1 2 3 4 5 6 7 8 9 10 11 12 13
213
FTUS42 KMHX 231724
TAFPGV
TAF
KPGV 231724Z 2318/2418 17006KT P6SM SCT050
      TEMPO 2318/2321 BKN050
     FM240600 00000KT 5SM BR SCT070
     FM240900 00000KT 3SM BR SCT070
     FM241200 13005KT P6SM SCT050
      AMD LTD TO CLD VIS AND WIND=

USA.gov is the U.S. government's official web portal to all federal, state and local government web resources and services.